createdAt,value
2018-08-07T00:08:37.673Z,21.50
2018-08-07T00:11:06.465Z,21.60
2018-08-07T00:13:35.147Z,21.50
2018-08-07T00:16:03.945Z,21.50
2018-08-07T00:18:32.673Z,21.40
2018-08-07T00:21:01.503Z,21.30
2018-08-07T00:23:30.219Z,21.30
2018-08-07T00:25:59.011Z,21.30
2018-08-07T00:28:27.823Z,21.20
2018-08-07T00:30:56.549Z,21.20
2018-08-07T00:33:25.258Z,21.10
2018-08-07T00:35:54.058Z,21.10
2018-08-07T00:38:22.791Z,21.10
2018-08-07T00:40:51.663Z,21.20
2018-08-07T00:43:20.474Z,21.20
2018-08-07T00:45:49.314Z,21.10
2018-08-07T00:48:18.084Z,21.00
2018-08-07T00:50:46.800Z,20.90
2018-08-07T00:53:16.174Z,21.00
2018-08-07T00:55:45.003Z,21.00
2018-08-07T00:58:13.719Z,21.00
2018-08-07T01:00:42.375Z,21.10
2018-08-07T01:03:11.171Z,21.00
2018-08-07T01:05:39.985Z,20.90
2018-08-07T01:08:08.684Z,20.80
2018-08-07T01:10:37.435Z,20.70
2018-08-07T01:13:06.268Z,20.60
2018-08-07T01:15:34.954Z,20.70
2018-08-07T01:18:03.802Z,20.60
2018-08-07T01:20:32.561Z,20.50
2018-08-07T01:23:01.191Z,20.40
2018-08-07T01:25:30.146Z,20.40
2018-08-07T01:27:58.755Z,20.30
2018-08-07T01:30:29.114Z,20.30
2018-08-07T01:32:58.284Z,20.30
2018-08-07T01:35:28.659Z,20.30
2018-08-07T01:37:57.476Z,20.20
2018-08-07T01:40:26.334Z,20.10
2018-08-07T01:42:55.052Z,20.10
2018-08-07T01:47:52.236Z,20.10
2018-08-07T01:50:21.068Z,20.00
2018-08-07T01:52:49.876Z,20.00
2018-08-07T01:55:20.844Z,19.90
2018-08-07T01:57:49.629Z,19.70
2018-08-07T02:00:18.505Z,19.70
2018-08-07T02:02:47.318Z,19.60
2018-08-07T02:05:16.110Z,19.70
2018-08-07T02:07:44.926Z,19.70
2018-08-07T02:10:16.764Z,19.60
2018-08-07T02:12:45.544Z,19.60
2018-08-07T02:15:14.972Z,19.70
2018-08-07T02:17:43.662Z,19.70
2018-08-07T02:20:14.580Z,19.70
2018-08-07T02:22:44.062Z,19.70
2018-08-07T02:25:14.456Z,19.70
2018-08-07T02:27:43.987Z,19.80
2018-08-07T02:30:14.029Z,19.80
2018-08-07T02:32:42.728Z,19.80
2018-08-07T02:35:12.578Z,19.90
2018-08-07T02:37:42.435Z,19.80
2018-08-07T02:40:12.171Z,19.80
2018-08-07T02:42:41.118Z,19.70
2018-08-07T02:45:11.849Z,19.50
2018-08-07T02:47:41.223Z,19.50
2018-08-07T02:50:11.244Z,19.40
2018-08-07T02:52:40.050Z,19.40
2018-08-07T02:55:10.278Z,19.40
2018-08-07T02:57:39.860Z,19.40
2018-08-07T03:00:12.932Z,19.40
2018-08-07T03:02:41.649Z,19.30
2018-08-07T03:05:10.943Z,19.40
2018-08-07T03:07:40.094Z,19.30
2018-08-07T03:10:09.548Z,19.30
2018-08-07T03:12:38.817Z,19.30
2018-08-07T03:15:12.883Z,19.30
2018-08-07T03:17:42.054Z,19.40
2018-08-07T03:20:10.849Z,19.60
2018-08-07T03:22:50.149Z,19.70
2018-08-07T03:25:18.887Z,19.80
2018-08-07T03:27:47.651Z,19.90
2018-08-07T03:30:17.786Z,20.00
2018-08-07T03:32:47.085Z,20.10
2018-08-07T03:35:15.789Z,20.20
2018-08-07T03:37:44.510Z,20.30
2018-08-07T03:40:17.414Z,20.40
2018-08-07T03:42:46.266Z,20.40
2018-08-07T03:45:16.145Z,20.40
2018-08-07T03:50:14.124Z,20.40
2018-08-07T03:55:15.217Z,20.40
2018-08-07T03:57:44.708Z,20.30
2018-08-07T04:00:17.318Z,20.20
2018-08-07T04:02:46.046Z,20.10
2018-08-07T04:05:14.914Z,20.10
2018-08-07T04:07:43.618Z,20.00
2018-08-07T04:10:13.608Z,19.90
2018-08-07T04:12:42.310Z,19.90
2018-08-07T04:15:12.935Z,19.90
2018-08-07T04:17:42.258Z,19.90
2018-08-07T04:20:12.951Z,19.90
2018-08-07T04:22:41.812Z,19.90
2018-08-07T04:25:10.570Z,19.90
2018-08-07T04:27:39.378Z,19.90
2018-08-07T04:30:11.180Z,19.90
2018-08-07T04:35:33.588Z,19.90
2018-08-07T04:38:08.478Z,19.80
2018-08-07T04:40:37.229Z,19.90
2018-08-07T04:43:23.960Z,19.90
2018-08-07T04:45:53.914Z,20.00
2018-08-07T04:48:22.663Z,20.10
2018-08-07T04:56:42.161Z,20.20
2018-08-07T04:59:21.318Z,20.10
2018-08-07T05:01:50.128Z,20.00
2018-08-07T05:04:18.830Z,20.00
2018-08-07T05:06:47.475Z,20.00
2018-08-07T05:09:16.202Z,20.10
2018-08-07T05:11:44.919Z,20.10
2018-08-07T05:14:13.840Z,20.30
2018-08-07T05:16:42.654Z,20.40
2018-08-07T05:19:11.490Z,20.50
2018-08-07T05:21:42.342Z,20.50
2018-08-07T05:24:11.057Z,20.50
2018-08-07T05:26:39.845Z,20.60
2018-08-07T05:29:08.809Z,20.70
2018-08-07T05:31:37.530Z,20.80
2018-08-07T05:34:06.270Z,20.80
2018-08-07T05:36:35.110Z,20.90
2018-08-07T05:39:03.985Z,21.00
2018-08-07T05:44:32.951Z,21.20
2018-08-07T05:47:01.653Z,21.30
2018-08-07T05:49:44.563Z,21.40
2018-08-07T05:52:13.226Z,21.60
2018-08-07T05:54:41.956Z,21.70
2018-08-07T05:57:10.692Z,21.80
2018-08-07T05:59:50.806Z,21.80
2018-08-07T06:02:19.526Z,21.90
2018-08-07T06:04:48.178Z,22.00
2018-08-07T06:07:16.942Z,22.10
2018-08-07T06:09:45.714Z,22.10
2018-08-07T06:12:14.430Z,22.10
2018-08-07T06:14:43.161Z,22.10
2018-08-07T06:19:40.174Z,22.10
2018-08-07T06:22:08.920Z,22.10
2018-08-07T06:24:37.578Z,22.20
2018-08-07T06:27:06.285Z,22.30
2018-08-07T06:29:35.053Z,22.20
2018-08-07T06:32:03.818Z,22.10
2018-08-07T06:34:32.673Z,22.00
2018-08-07T06:37:01.384Z,22.10
2018-08-07T06:39:30.107Z,22.20
2018-08-07T06:41:59.889Z,22.30
2018-08-07T06:44:28.611Z,22.40
2018-08-07T06:46:57.310Z,22.40
2018-08-07T06:49:27.174Z,22.40
2018-08-07T06:51:55.921Z,22.40
2018-08-07T06:54:24.660Z,22.40
2018-08-07T06:56:53.343Z,22.40
2018-08-07T06:59:22.123Z,22.30
2018-08-07T07:01:50.873Z,22.40
2018-08-07T07:04:19.486Z,22.40
2018-08-07T07:06:48.123Z,22.50
2018-08-07T07:09:16.940Z,22.60
2018-08-07T07:11:45.654Z,22.80
2018-08-07T07:14:14.596Z,22.80
2018-08-07T07:16:43.352Z,22.70
2018-08-07T07:19:12.082Z,22.60
2018-08-07T07:21:40.847Z,22.70
2018-08-07T07:24:09.642Z,22.60
2018-08-07T07:26:43.272Z,22.50
2018-08-07T07:29:11.986Z,22.50
2018-08-07T07:31:40.665Z,22.50
2018-08-07T07:34:09.497Z,22.40
2018-08-07T07:36:38.243Z,22.40
2018-08-07T07:39:08.225Z,22.60
2018-08-07T07:41:37.048Z,22.70
2018-08-07T07:44:05.949Z,22.90
2018-08-07T07:46:34.959Z,23.10
2018-08-07T07:49:03.994Z,23.40
2018-08-07T07:51:32.814Z,23.70
2018-08-07T07:54:01.813Z,24.20
2018-08-07T07:56:30.781Z,24.60
2018-08-07T07:58:59.617Z,25.10
2018-08-07T08:01:28.515Z,25.40
2018-08-07T08:03:57.458Z,25.40
2018-08-07T08:06:26.426Z,25.50
2018-08-07T08:08:55.359Z,26.00
2018-08-07T08:11:37.894Z,27.00
2018-08-07T08:16:35.213Z,28.40
2018-08-07T08:19:04.009Z,29.00
2018-08-07T08:21:32.773Z,30.20
2018-08-07T08:24:01.531Z,31.00
2018-08-07T08:26:30.337Z,33.00
2018-08-07T08:28:59.101Z,35.90
2018-08-07T08:31:27.845Z,38.20
2018-08-07T08:33:56.574Z,40.10
2018-08-07T08:36:43.817Z,41.70
2018-08-07T08:39:13.289Z,42.70
2018-08-07T08:41:42.483Z,42.60
2018-08-07T08:44:11.161Z,41.60
2018-08-07T08:46:39.879Z,41.50
2018-08-07T08:51:36.889Z,42.60
2018-08-07T08:54:05.601Z,43.10
2018-08-07T08:56:34.317Z,43.30
2018-08-07T08:59:02.940Z,43.50
2018-08-07T09:01:31.743Z,43.40
2018-08-07T09:04:00.425Z,42.20
2018-08-07T09:06:29.222Z,40.30
2018-08-07T09:08:57.855Z,39.80
2018-08-07T09:11:26.620Z,40.20
2018-08-07T09:13:55.381Z,40.50
2018-08-07T09:16:24.144Z,41.80
2018-08-07T09:18:52.899Z,41.90
2018-08-07T09:21:21.621Z,42.40
2018-08-07T09:23:50.362Z,42.00
2018-08-07T09:26:19.143Z,41.20
2018-08-07T09:31:38.369Z,41.30
2018-08-07T09:34:07.087Z,41.10
2018-08-07T09:36:35.726Z,40.30
2018-08-07T09:39:07.443Z,38.90
2018-08-07T09:41:36.364Z,39.10
2018-08-07T09:44:06.063Z,37.80
2018-08-07T09:46:34.905Z,36.90
2018-08-07T09:49:03.845Z,36.10
2018-08-07T09:51:32.669Z,35.60
2018-08-07T09:56:52.387Z,37.50
2018-08-07T09:59:21.199Z,39.00
2018-08-07T10:01:55.044Z,39.30
2018-08-07T10:04:23.766Z,38.60
2018-08-07T10:06:52.587Z,37.50
2018-08-07T10:09:21.231Z,38.70
2018-08-07T10:11:50.059Z,39.60
2018-08-07T10:20:00.718Z,42.60
2018-08-07T10:22:29.433Z,41.90
2018-08-07T10:24:58.130Z,40.90
2018-08-07T10:30:19.696Z,40.90
2018-08-07T10:32:48.904Z,40.20
2018-08-07T10:35:17.653Z,40.80
2018-08-07T10:37:46.755Z,40.60
2018-08-07T10:40:18.571Z,40.00
2018-08-07T10:42:47.253Z,38.30
2018-08-07T10:45:17.665Z,36.80
2018-08-07T10:47:46.440Z,35.40
2018-08-07T10:50:18.386Z,34.60
2018-08-07T10:52:47.737Z,34.10
2018-08-07T10:55:16.410Z,33.90
2018-08-07T10:57:46.849Z,33.20
2018-08-07T11:00:19.127Z,32.70
2018-08-07T11:02:48.970Z,32.50
2018-08-07T11:16:31.213Z,30.40
2018-08-07T11:18:59.928Z,30.30
2018-08-07T11:21:28.588Z,30.10
2018-08-07T11:23:57.282Z,29.80
2018-08-07T11:26:26.084Z,29.60
2018-08-07T11:28:55.799Z,29.10
2018-08-07T11:34:15.126Z,28.50
2018-08-07T11:36:43.924Z,28.20
2018-08-07T11:39:12.782Z,28.00
2018-08-07T11:44:44.839Z,27.60
2018-08-07T11:50:04.940Z,24.60
2018-08-07T11:52:33.698Z,23.20
2018-08-07T11:55:02.559Z,22.90
2018-08-07T11:57:31.382Z,22.40
2018-08-07T12:00:00.163Z,22.10
2018-08-07T12:02:28.930Z,21.90
2018-08-07T12:04:57.881Z,22.00
2018-08-07T12:07:26.622Z,22.00
2018-08-07T12:09:55.689Z,21.70
2018-08-07T12:12:26.527Z,21.50
2018-08-07T12:17:46.034Z,21.00
2018-08-07T12:23:09.552Z,20.70
2018-08-07T12:25:38.399Z,20.70
2018-08-07T12:28:09.232Z,20.60
2018-08-07T12:30:38.088Z,20.70
2018-08-07T12:33:06.863Z,20.80
2018-08-07T12:35:35.632Z,21.00
2018-08-07T12:40:56.425Z,21.40
2018-08-07T12:43:25.218Z,21.60
2018-08-07T12:45:53.992Z,21.70
2018-08-07T12:48:22.812Z,21.70
2018-08-07T12:50:51.585Z,21.20
2018-08-07T12:53:20.375Z,20.90
2018-08-07T12:58:39.317Z,20.30
2018-08-07T13:01:17.538Z,20.00
2018-08-07T13:03:54.463Z,19.80
2018-08-07T13:19:32.173Z,19.50
2018-08-07T13:22:13.918Z,19.40
2018-08-07T13:30:28.853Z,19.40
2018-08-07T13:49:57.226Z,19.50
2018-08-07T13:52:31.294Z,19.70
2018-08-07T13:54:59.899Z,20.00
2018-08-07T13:57:34.767Z,19.90
2018-08-07T14:00:03.530Z,20.00
2018-08-07T14:02:41.737Z,20.10
2018-08-07T14:05:10.468Z,20.20
2018-08-07T14:07:40.474Z,20.40
2018-08-07T14:10:10.874Z,20.60
2018-08-07T14:12:40.945Z,20.80
2018-08-07T14:15:17.554Z,21.00
2018-08-07T14:17:46.582Z,21.00
2018-08-07T14:20:16.432Z,21.00
2018-08-07T14:22:45.468Z,21.00
2018-08-07T14:25:19.855Z,20.90
2018-08-07T14:27:48.840Z,20.80
2018-08-07T14:30:25.175Z,20.80
2018-08-07T14:32:53.972Z,20.90
2018-08-07T14:35:22.883Z,20.90
2018-08-07T14:40:37.614Z,20.80
2018-08-07T14:43:06.421Z,20.70
2018-08-07T14:45:35.392Z,20.80
2018-08-07T14:48:04.895Z,20.90
2018-08-07T15:05:43.973Z,21.30
2018-08-07T15:08:29.694Z,22.70
2018-08-07T15:11:00.651Z,23.00
2018-08-07T15:13:31.605Z,23.10
2018-08-07T15:18:55.906Z,22.50
2018-08-07T15:21:24.605Z,21.90
2018-08-07T15:23:53.435Z,21.70
2018-08-07T15:26:22.235Z,21.60
2018-08-07T15:28:51.018Z,21.70
2018-08-07T15:42:43.470Z,22.20
2018-08-07T15:47:46.823Z,22.00
2018-08-07T15:50:16.703Z,22.10
2018-08-07T15:52:46.916Z,22.10
2018-08-07T16:00:56.727Z,22.40
2018-08-07T16:03:25.574Z,22.70
2018-08-07T16:05:54.396Z,22.80
2018-08-07T16:08:23.237Z,23.00
2018-08-07T16:10:52.003Z,23.20
2018-08-07T16:16:11.976Z,23.40
2018-08-07T16:18:40.691Z,23.20
2018-08-07T16:21:09.488Z,23.40
2018-08-07T16:23:38.300Z,23.70
2018-08-07T16:26:07.070Z,24.10
2018-08-07T16:28:35.904Z,25.00
2018-08-07T16:31:04.650Z,25.50
2018-08-07T16:33:33.347Z,26.10
2018-08-07T16:36:02.079Z,26.50
2018-08-07T16:38:30.828Z,27.00
2018-08-07T16:40:59.505Z,27.50
2018-08-07T16:46:32.798Z,28.70
2018-08-07T16:49:01.928Z,28.70
2018-08-07T16:51:30.900Z,28.30
2018-08-07T16:56:27.997Z,29.00
2018-08-07T16:58:57.928Z,29.10
2018-08-07T17:01:26.746Z,28.50
2018-08-07T17:03:55.714Z,28.10
2018-08-07T17:06:31.104Z,27.60
2018-08-07T17:08:59.871Z,27.10
2018-08-07T17:11:28.689Z,26.90
2018-08-07T17:13:57.540Z,26.80
2018-08-07T17:16:26.436Z,26.60
2018-08-07T17:18:57.450Z,26.50
2018-08-07T17:21:29.834Z,26.00
2018-08-07T17:23:58.696Z,25.60
2018-08-07T17:26:27.519Z,25.20
2018-08-07T17:28:57.447Z,24.90
2018-08-07T17:31:26.221Z,24.50
2018-08-07T17:33:58.283Z,24.10
2018-08-07T17:36:32.424Z,24.00
2018-08-07T17:39:02.276Z,23.70
2018-08-07T17:44:24.182Z,23.40
2018-08-07T17:46:55.200Z,23.20
2018-08-07T17:49:37.990Z,23.00
2018-08-07T17:52:07.432Z,23.00
2018-08-07T17:54:36.106Z,22.90
2018-08-07T17:57:04.849Z,22.70
2018-08-07T17:59:33.601Z,22.60
2018-08-07T18:02:02.459Z,22.50
2018-08-07T18:04:31.240Z,22.40
2018-08-07T18:07:02.011Z,22.30
2018-08-07T18:09:30.851Z,22.10
2018-08-07T18:12:03.433Z,22.00
2018-08-07T18:14:32.301Z,21.70
2018-08-07T18:17:00.991Z,21.60
2018-08-07T18:19:29.693Z,21.40
2018-08-07T18:21:58.460Z,21.20
2018-08-07T18:24:27.211Z,21.00
2018-08-07T18:26:56.328Z,20.90
2018-08-07T18:29:25.026Z,20.80
2018-08-07T18:40:20.804Z,20.20
2018-08-07T18:42:49.790Z,20.00
2018-08-07T18:45:18.689Z,19.90
2018-08-07T18:47:47.584Z,19.70
2018-08-07T18:50:18.237Z,19.60
2018-08-07T18:52:47.104Z,19.50
2018-08-07T18:55:16.377Z,19.40
2018-08-07T18:57:46.439Z,19.20
2018-08-07T19:00:19.881Z,19.10
2018-08-07T19:02:52.815Z,19.00
2018-08-07T19:05:24.524Z,18.90
2018-08-07T19:07:53.532Z,18.80
2018-08-07T19:10:22.388Z,18.80
2018-08-07T19:12:57.200Z,18.70
2018-08-07T19:15:25.982Z,18.70
2018-08-07T19:17:55.849Z,18.70
2018-08-07T19:20:24.684Z,18.60
2018-08-07T19:22:53.444Z,18.60
2018-08-07T19:25:22.259Z,18.60
2018-08-07T19:27:51.057Z,18.60
2018-08-07T19:30:21.831Z,18.80
2018-08-07T19:32:50.579Z,18.90
2018-08-07T19:35:19.449Z,18.90
2018-08-07T19:37:48.281Z,18.90
2018-08-07T19:40:18.528Z,18.90
2018-08-07T19:42:49.212Z,18.90
2018-08-07T19:45:18.543Z,18.90
2018-08-07T19:47:47.535Z,18.80
2018-08-07T19:50:18.893Z,18.70
2018-08-07T19:52:47.690Z,18.60
2018-08-07T19:55:18.462Z,18.40
2018-08-07T19:57:57.820Z,18.40
2018-08-07T20:00:29.108Z,18.30
2018-08-07T20:02:58.553Z,18.30
2018-08-07T20:05:27.426Z,18.20
2018-08-07T20:07:57.105Z,18.20
2018-08-07T20:10:25.940Z,18.10
2018-08-07T20:12:54.740Z,18.20
2018-08-07T20:15:26.327Z,18.20
2018-08-07T20:17:55.861Z,18.20
2018-08-07T20:20:25.110Z,18.20
2018-08-07T20:22:54.395Z,18.20
2018-08-07T20:25:23.340Z,18.20
2018-08-07T20:27:52.272Z,18.10
2018-08-07T20:30:22.583Z,18.20
2018-08-07T20:32:52.890Z,18.30
2018-08-07T20:35:21.677Z,18.40
2018-08-07T20:37:50.579Z,18.40
2018-08-07T20:40:22.715Z,18.30
2018-08-07T20:42:51.806Z,18.40
2018-08-07T20:47:49.756Z,18.30
2018-08-07T20:50:21.193Z,18.30
2018-08-07T20:52:50.155Z,18.30
2018-08-07T20:55:19.013Z,18.20
2018-08-07T20:57:47.757Z,18.10
2018-08-07T21:00:19.732Z,18.20
2018-08-07T21:02:48.901Z,18.20
2018-08-07T21:05:17.785Z,18.20
2018-08-07T21:07:46.693Z,18.20
2018-08-07T21:10:16.938Z,18.20
2018-08-07T21:12:45.702Z,18.10
2018-08-07T21:15:14.453Z,18.00
2018-08-07T21:17:43.247Z,18.00
2018-08-07T21:20:15.499Z,18.10
2018-08-07T21:22:44.428Z,18.00
2018-08-07T21:25:15.271Z,18.00
2018-08-07T21:27:44.455Z,17.90
2018-08-07T21:30:15.178Z,17.90
2018-08-07T21:32:43.912Z,17.90
2018-08-07T21:35:12.904Z,17.90
2018-08-07T21:37:41.981Z,17.90
2018-08-07T21:40:13.051Z,17.90
2018-08-07T21:43:19.469Z,18.00
2018-08-07T21:45:47.991Z,18.00
2018-08-07T21:48:16.495Z,18.10
2018-08-07T21:50:45.027Z,18.10
2018-08-07T21:53:13.541Z,18.10
2018-08-07T21:55:42.085Z,18.20
2018-08-07T21:58:10.610Z,18.10
2018-08-07T22:00:46.124Z,18.20
2018-08-07T22:03:14.669Z,18.10
2018-08-07T22:05:43.463Z,18.10
2018-08-07T22:08:13.666Z,18.00
2018-08-07T22:10:42.663Z,17.90
2018-08-07T22:13:11.386Z,17.80
2018-08-07T22:15:40.150Z,17.80
2018-08-07T22:18:10.187Z,17.80
2018-08-07T22:20:39.123Z,17.80
2018-08-07T22:23:07.945Z,17.70
2018-08-07T22:25:36.686Z,17.70
2018-08-07T22:28:05.942Z,17.70
2018-08-07T22:30:34.678Z,17.60
2018-08-07T22:33:03.503Z,17.60
2018-08-07T22:35:32.251Z,17.60
2018-08-07T22:38:00.993Z,17.60
2018-08-07T22:40:29.805Z,17.60
2018-08-07T22:42:58.626Z,17.70
2018-08-07T22:45:28.345Z,17.70
2018-08-07T22:47:57.185Z,17.80
2018-08-07T22:50:25.858Z,17.80
2018-08-07T22:52:54.585Z,17.70
2018-08-07T22:55:23.356Z,17.70
2018-08-07T22:57:52.127Z,17.70
2018-08-07T23:00:22.020Z,17.60
2018-08-07T23:02:50.971Z,17.60
2018-08-07T23:05:20.035Z,17.70
2018-08-07T23:07:48.794Z,17.70
2018-08-07T23:10:19.175Z,17.70
2018-08-07T23:12:47.890Z,17.70
2018-08-07T23:15:18.475Z,17.70
2018-08-07T23:17:47.573Z,17.70
2018-08-07T23:20:17.755Z,17.60
2018-08-07T23:22:46.581Z,17.50
2018-08-07T23:25:15.329Z,17.50
2018-08-07T23:27:44.010Z,17.50
2018-08-07T23:30:14.585Z,17.40
2018-08-07T23:32:43.551Z,17.40
2018-08-07T23:35:12.895Z,17.40
2018-08-07T23:37:41.666Z,17.40
2018-08-07T23:40:11.861Z,17.30
2018-08-07T23:42:41.472Z,17.30
2018-08-07T23:45:11.796Z,17.30
2018-08-07T23:47:40.666Z,17.20
2018-08-07T23:50:10.222Z,17.20
2018-08-07T23:52:39.189Z,17.20
2018-08-07T23:55:08.501Z,17.20
2018-08-07T23:57:37.483Z,17.20
